Time;durP1;ratioP1;P1;durP2;ratioP2;P2;SDS_P1;SDS_P2;PMS_P1;PMS_P2;Temp;Humidity;BMP_temperature;BMP_pressure;BME280_temperature;BME280_humidity;BME280_pressure;Samples;Min_cycle;Max_cycle;Signal;HPM_P1;HPM_P2
2023/03/23 00:00:24;;;;;;;1.97;1.20;;;12.90;99.90;;;13.35;100.00;97274.50;5026890;28;20463;-78
2023/03/23 00:02:53;;;;;;;8.30;1.50;;;12.80;99.90;;;13.37;100.00;97280.31;4994180;28;20494;-78
2023/03/23 00:05:22;;;;;;;1.70;1.20;;;12.80;99.90;;;13.36;100.00;97283.94;4995568;28;20564;-78
2023/03/23 00:07:52;;;;;;;2.93;1.30;;;12.80;99.90;;;13.34;100.00;97287.84;4994663;28;20913;-78
2023/03/23 00:10:20;;;;;;;1.27;1.07;;;12.80;99.90;;;13.33;100.00;97281.78;5030264;28;20970;-78
2023/03/23 00:12:49;;;;;;;1.50;0.97;;;12.80;99.90;;;13.33;100.00;97275.75;4995287;28;20482;-78
2023/03/23 00:15:17;;;;;;;1.30;1.10;;;12.80;99.90;;;13.35;100.00;97282.38;4995799;28;20609;-77
2023/03/23 00:17:45;;;;;;;2.10;1.10;;;12.90;99.90;;;13.32;100.00;97280.19;4996338;28;20467;-78
2023/03/23 00:20:15;;;;;;;1.47;1.00;;;12.80;99.90;;;13.33;100.00;97276.53;4999668;28;21149;-78
2023/03/23 00:22:45;;;;;;;4.80;1.50;;;12.90;99.90;;;13.34;100.00;97278.13;4994781;28;20475;-78
2023/03/23 00:25:16;;;;;;;1.53;1.13;;;12.80;99.90;;;13.34;100.00;97280.75;5001117;28;20463;-78
2023/03/23 00:27:45;;;;;;;4.50;1.30;;;12.80;99.90;;;13.34;100.00;97275.50;4995265;28;20499;-78
2023/03/23 00:30:15;;;;;;;1.47;1.20;;;12.80;99.90;;;13.33;100.00;97266.00;4995285;28;20550;-78
2023/03/23 00:32:43;;;;;;;1.50;0.97;;;12.80;99.90;;;13.28;100.00;97276.41;4997067;28;20594;-77
2023/03/23 00:35:15;;;;;;;2.50;1.30;;;12.70;99.90;;;13.32;100.00;97279.38;4995548;28;20486;-78
2023/03/23 00:37:43;;;;;;;2.80;1.37;;;12.80;99.90;;;13.32;100.00;97267.06;4996161;28;20471;-76
2023/03/23 00:40:15;;;;;;;1.63;1.10;;;12.80;99.90;;;13.32;100.00;97266.25;4997309;28;20988;-78
2023/03/23 00:42:43;;;;;;;1.00;0.90;;;12.80;99.90;;;13.32;100.00;97264.44;4997668;28;20538;-78
2023/03/23 00:45:12;;;;;;;1.97;1.07;;;12.80;99.90;;;13.31;100.00;97273.31;4994661;28;20546;-78
2023/03/23 00:47:41;;;;;;;1.07;0.93;;;12.80;99.90;;;13.33;100.00;97271.28;4996441;28;21040;-78
2023/03/23 00:50:12;;;;;;;1.20;1.10;;;12.80;99.90;;;13.31;100.00;97272.53;4996173;28;20558;-78
2023/03/23 00:52:42;;;;;;;1.73;1.00;;;12.80;99.90;;;13.28;100.00;97271.16;4998055;28;20492;-78
2023/03/23 00:55:11;;;;;;;1.30;1.10;;;12.70;99.90;;;13.27;100.00;97263.50;4997828;28;20944;-77
2023/03/23 00:57:38;;;;;;;1.20;1.10;;;12.70;99.90;;;13.27;100.00;97266.13;4999534;28;20467;-77
2023/03/23 01:00:14;;;;;;;1.17;1.07;;;12.70;99.90;;;13.26;100.00;97264.53;5014691;28;20459;-78
2023/03/23 01:02:44;;;;;;;1.90;1.00;;;12.70;99.90;;;13.24;100.00;97264.75;4997226;28;20565;-78
2023/03/23 01:05:14;;;;;;;1.77;1.27;;;12.70;99.90;;;13.25;100.00;97262.91;4998586;28;20465;-78
2023/03/23 01:07:44;;;;;;;1.80;1.10;;;12.70;99.90;;;13.17;100.00;97258.78;4996623;28;20565;-77
2023/03/23 01:10:15;;;;;;;1.80;1.30;;;12.60;99.90;;;13.18;100.00;97246.47;4996689;28;20463;-77
2023/03/23 01:12:46;;;;;;;1.40;1.30;;;12.60;99.90;;;13.19;100.00;97248.06;4995373;28;20472;-78
2023/03/23 01:15:19;;;;;;;1.23;0.90;;;12.70;99.90;;;13.14;100.00;97246.09;4997506;28;20468;-78
2023/03/23 01:17:48;;;;;;;1.73;1.17;;;12.60;99.90;;;13.13;100.00;97251.56;4998536;28;20882;-78
2023/03/23 01:20:17;;;;;;;1.10;1.00;;;12.60;99.90;;;13.09;100.00;97238.88;4996473;28;20542;-78
2023/03/23 01:22:47;;;;;;;1.07;0.97;;;12.50;99.90;;;13.11;100.00;97241.31;4997923;28;20475;-78
2023/03/23 01:25:16;;;;;;;1.73;1.30;;;12.60;99.90;;;13.05;100.00;97250.03;4998101;28;20466;-78
2023/03/23 01:27:45;;;;;;;1.70;1.37;;;12.50;99.90;;;13.05;100.00;97237.69;4999669;28;20504;-78
2023/03/23 01:30:15;;;;;;;6.27;1.50;;;12.40;99.90;;;13.06;100.00;97234.06;5002752;28;20463;-78
2023/03/23 01:32:44;;;;;;;1.60;1.23;;;12.50;99.90;;;13.06;100.00;97238.50;5004714;28;21053;-78
2023/03/23 01:35:14;;;;;;;1.67;1.27;;;12.50;99.90;;;13.05;100.00;97247.41;4999451;28;20565;-78
2023/03/23 01:37:42;;;;;;;2.43;1.33;;;12.50;99.90;;;13.00;100.00;97239.38;4999427;28;20470;-78
2023/03/23 01:40:13;;;;;;;1.20;1.10;;;12.40;99.90;;;13.02;100.00;97232.88;5000055;28;20970;-78
2023/03/23 01:42:40;;;;;;;1.40;1.10;;;12.50;99.90;;;13.01;100.00;97233.13;4999513;28;20462;-78
2023/03/23 01:45:34;;;;;;;1.77;1.17;;;12.40;99.90;;;13.01;100.00;97225.25;5005194;28;20463;-78
2023/03/23 01:48:11;;;;;;;1.27;1.03;;;12.40;99.90;;;13.00;100.00;97219.19;5001397;28;20585;-78
2023/03/23 01:50:51;;;;;;;1.33;1.10;;;12.40;99.90;;;13.02;100.00;97222.38;5001188;28;20474;-78
2023/03/23 01:53:21;;;;;;;2.97;1.30;;;12.50;99.90;;;13.00;100.00;97228.91;4997156;28;20459;-78
2023/03/23 01:55:54;;;;;;;2.07;1.03;;;12.40;99.90;;;13.00;100.00;97234.13;4998462;28;20993;-78
2023/03/23 01:58:28;;;;;;;2.70;1.07;;;12.50;99.90;;;12.98;100.00;97225.69;5012113;28;20517;-78
2023/03/23 02:01:00;;;;;;;1.00;0.90;;;12.40;99.90;;;12.96;100.00;97232.97;4997619;28;20562;-78
2023/03/23 02:03:31;;;;;;;4.60;1.40;;;12.30;99.90;;;12.98;100.00;97218.59;4997620;28;20486;-78
2023/03/23 02:06:00;;;;;;;5.33;1.43;;;12.40;99.90;;;13.00;100.00;97218.41;4998324;28;21056;-78
2023/03/23 02:08:32;;;;;;;2.23;1.43;;;12.40;99.90;;;13.00;100.00;97218.41;4998981;28;20498;-78
2023/03/23 02:11:04;;;;;;;3.30;1.10;;;12.40;99.90;;;12.98;100.00;97217.84;4998352;28;20466;-78
2023/03/23 02:13:32;;;;;;;3.83;1.00;;;12.40;99.90;;;12.98;100.00;97225.69;4996981;28;20458;-78
2023/03/23 02:16:12;;;;;;;2.00;1.33;;;12.40;99.90;;;12.93;100.00;97228.19;4997266;28;20479;-78
2023/03/23 02:18:58;;;;;;;1.17;1.07;;;12.40;99.90;;;12.90;100.00;97215.50;4998450;28;20463;-78
2023/03/23 02:22:20;;;;;;;2.00;1.30;;;12.30;99.90;;;12.86;100.00;97219.59;4997427;28;20978;-78
2023/03/23 02:25:24;;;;;;;2.00;1.20;;;12.20;99.90;;;12.84;100.00;97214.53;4994054;28;20552;-78
2023/03/23 02:28:32;;;;;;;2.90;1.50;;;12.30;99.90;;;12.83;100.00;97205.09;4997656;28;20577;-78
2023/03/23 02:31:44;;;;;;;2.47;1.27;;;12.30;99.90;;;12.79;100.00;97195.25;4979286;28;20474;-77
2023/03/23 02:34:19;;;;;;;1.57;1.40;;;12.30;99.90;;;12.72;100.00;97200.59;4996056;28;20471;-78
2023/03/23 02:36:53;;;;;;;2.07;1.40;;;12.20;99.90;;;12.72;100.00;97205.03;5001023;28;20471;-78
2023/03/23 02:39:25;;;;;;;1.50;1.40;;;12.10;99.90;;;12.72;100.00;97199.78;4999534;28;20575;-77
2023/03/23 02:41:59;;;;;;;4.13;1.60;;;12.20;99.90;;;12.68;100.00;97198.63;4996253;28;20475;-77
2023/03/23 02:44:32;;;;;;;1.63;1.40;;;12.10;99.90;;;12.63;100.00;97201.13;4997485;28;20468;-78
2023/03/23 02:47:03;;;;;;;4.83;1.87;;;12.10;99.90;;;12.65;100.00;97199.06;4998142;28;20515;-78
2023/03/23 02:49:40;;;;;;;2.60;1.90;;;12.10;99.90;;;12.60;100.00;97207.59;4998388;28;21055;-77
2023/03/23 02:52:14;;;;;;;2.00;1.43;;;12.00;99.90;;;12.61;100.00;97199.50;4995424;28;20487;-78
2023/03/23 02:54:47;;;;;;;4.30;1.50;;;12.00;99.90;;;12.61;100.00;97203.94;4996160;28;20462;-78
2023/03/23 02:57:16;;;;;;;2.03;1.40;;;12.00;99.90;;;12.59;100.00;97192.91;4997628;28;20997;-78
2023/03/23 02:59:45;;;;;;;2.70;1.47;;;12.00;99.90;;;12.57;100.00;97193.09;4999069;28;20499;-77
2023/03/23 03:02:19;;;;;;;1.93;1.47;;;12.00;99.90;;;12.52;100.00;97200.84;4997125;28;20478;-78
2023/03/23 03:04:59;;;;;;;1.80;1.30;;;11.90;99.90;;;12.54;100.00;97204.03;4995645;28;20884;-78
2023/03/23 03:07:45;;;;;;;2.07;1.40;;;12.00;99.90;;;12.52;100.00;97200.84;5000913;28;20474;-77
2023/03/23 03:10:21;;;;;;;3.40;1.90;;;11.90;99.90;;;12.52;100.00;97200.84;4996683;28;20563;-77
2023/03/23 03:13:01;;;;;;;2.53;1.40;;;11.90;99.90;;;12.49;100.00;97209.16;4995434;28;20466;-77
2023/03/23 03:15:37;;;;;;;1.90;1.47;;;11.90;99.90;;;12.48;100.00;97210.16;5028312;28;20554;-77
2023/03/23 03:18:13;;;;;;;2.30;1.57;;;11.90;99.90;;;12.49;100.00;97218.84;4997557;28;21407;-77
2023/03/23 03:20:49;;;;;;;3.80;1.57;;;11.90;99.90;;;12.46;100.00;97221.91;4999019;28;20943;-78
2023/03/23 03:23:22;;;;;;;2.40;1.50;;;11.80;99.90;;;12.45;100.00;97215.03;4997164;28;20537;-78
2023/03/23 03:25:57;;;;;;;3.57;1.50;;;11.80;99.90;;;12.41;100.00;97200.78;5029329;28;20498;-77
2023/03/23 03:28:27;;;;;;;1.77;1.40;;;11.80;99.90;;;12.38;100.00;97207.25;5030719;28;20483;-78
2023/03/23 03:31:00;;;;;;;3.50;1.70;;;11.80;99.90;;;12.35;100.00;97205.06;4997480;28;20479;-78
2023/03/23 03:33:31;;;;;;;2.00;1.30;;;11.80;99.90;;;12.30;100.00;97217.22;4996715;28;20483;-78
2023/03/23 03:36:04;;;;;;;2.07;1.70;;;11.70;99.90;;;12.28;100.00;97212.22;4996809;28;20478;-78
2023/03/23 03:38:43;;;;;;;5.23;1.30;;;11.70;99.90;;;12.23;100.00;97226.97;5030232;28;20470;-78
2023/03/23 03:41:12;;;;;;;1.30;1.20;;;11.70;99.90;;;12.24;100.00;97229.38;5003572;28;20479;-78
2023/03/23 03:43:41;;;;;;;7.30;1.87;;;11.70;99.90;;;12.21;100.00;97229.81;4996300;28;20867;-77
2023/03/23 03:46:10;;;;;;;1.50;1.30;;;11.70;99.90;;;12.19;100.00;97226.59;4997648;28;20477;-77
2023/03/23 03:48:39;;;;;;;1.70;1.40;;;11.60;99.90;;;12.18;100.00;97235.50;4994884;28;20503;-77
2023/03/23 03:51:08;;;;;;;3.70;1.37;;;11.60;99.90;;;12.18;100.00;97232.88;4994017;28;20579;-78
2023/03/23 03:53:37;;;;;;;3.60;1.47;;;11.60;99.90;;;12.19;100.00;97242.34;5010120;28;20468;-78
2023/03/23 03:56:07;;;;;;;6.40;1.30;;;11.60;99.90;;;12.18;100.00;97240.75;4994773;28;20474;-78
2023/03/23 03:58:36;;;;;;;4.83;1.43;;;11.70;99.90;;;12.15;100.00;97235.91;4995020;28;20590;-78
2023/03/23 04:01:05;;;;;;;5.10;1.70;;;11.60;99.90;;;12.14;100.00;97234.34;4996341;28;20479;-78
2023/03/23 04:03:34;;;;;;;2.03;1.60;;;11.50;99.90;;;12.14;100.00;97242.19;4994674;28;20471;-78
2023/03/23 04:06:03;;;;;;;1.77;1.67;;;11.60;99.90;;;12.08;100.00;97235.97;5001585;28;20499;-78
2023/03/23 04:08:32;;;;;;;4.73;1.63;;;11.50;99.90;;;12.07;100.00;97228.34;4995070;28;20491;-78
2023/03/23 04:11:01;;;;;;;3.80;2.80;;;11.50;99.90;;;12.04;100.00;97239.28;4996206;28;20460;-78
2023/03/23 04:13:30;;;;;;;4.13;2.27;;;11.50;99.90;;;12.01;100.00;97232.63;4997249;28;21282;-78
2023/03/23 04:16:00;;;;;;;2.03;1.70;;;11.50;99.90;;;11.98;100.00;97242.72;4995151;28;20463;-77
2023/03/23 04:18:29;;;;;;;2.60;1.60;;;11.50;99.90;;;11.98;100.00;97240.09;4996054;28;20845;-77
2023/03/23 04:20:58;;;;;;;2.63;1.60;;;11.40;99.90;;;11.99;100.00;97239.09;4994269;28;20471;-78
2023/03/23 04:23:33;;;;;;;2.10;1.90;;;11.40;99.90;;;11.91;100.00;97242.78;4997144;28;20467;-77
2023/03/23 04:26:04;;;;;;;2.60;1.43;;;11.30;99.90;;;11.96;100.00;97236.91;4995285;28;20859;-74
2023/03/23 04:28:33;;;;;;;2.90;1.87;;;11.40;99.90;;;11.96;100.00;97231.69;4998780;28;20539;-77
2023/03/23 04:31:02;;;;;;;2.03;1.70;;;11.40;99.90;;;11.95;100.00;97230.88;4995115;28;20542;-77
2023/03/23 04:33:31;;;;;;;6.00;1.50;;;11.40;99.90;;;11.98;100.00;97234.88;4997062;28;21154;-77
2023/03/23 04:36:02;;;;;;;2.47;1.80;;;11.40;99.90;;;11.95;100.00;97236.09;4996769;28;20600;-77
2023/03/23 04:38:32;;;;;;;2.33;1.60;;;11.40;99.90;;;11.95;100.00;97235.31;4997350;28;20472;-77
2023/03/23 04:41:02;;;;;;;1.77;1.67;;;11.40;99.90;;;11.97;100.00;97246.38;4996296;28;20490;-78
2023/03/23 04:43:32;;;;;;;3.50;1.50;;;11.40;99.90;;;11.95;100.00;97240.53;4980501;28;20474;-77
2023/03/23 04:46:02;;;;;;;3.23;1.80;;;11.40;99.90;;;11.90;100.00;97243.84;5003973;28;20871;-77
2023/03/23 04:48:33;;;;;;;5.63;1.63;;;11.30;99.90;;;11.92;100.00;97235.75;5001929;28;20621;-77
2023/03/23 04:51:03;;;;;;;2.40;1.70;;;11.30;99.90;;;11.92;100.00;97241.78;5003297;28;20506;-77
2023/03/23 04:53:31;;;;;;;2.23;1.60;;;11.40;99.90;;;11.90;100.00;97243.03;5002962;28;20466;-77
2023/03/23 04:56:01;;;;;;;2.90;1.70;;;11.30;99.90;;;11.86;100.00;97237.41;5003520;28;20471;-77
2023/03/23 04:58:33;;;;;;;2.03;1.67;;;11.30;99.90;;;11.87;100.00;97248.69;5002095;28;20470;-77
2023/03/23 05:01:04;;;;;;;2.20;1.73;;;11.30;99.90;;;11.89;100.00;97241.41;5033760;28;21052;-77
2023/03/23 05:03:32;;;;;;;1.40;1.30;;;11.30;99.90;;;11.92;100.00;97251.47;5001860;28;21249;-77
2023/03/23 05:06:03;;;;;;;2.90;1.70;;;11.40;99.90;;;11.90;100.00;97253.50;5001171;28;21042;-75
2023/03/23 05:08:32;;;;;;;3.03;2.03;;;11.30;99.90;;;11.92;100.00;97259.31;5034285;28;20472;-78
2023/03/23 05:11:02;;;;;;;3.10;1.83;;;11.40;99.90;;;11.88;100.00;97258.94;5033326;28;21099;-77
2023/03/23 05:13:30;;;;;;;2.90;1.70;;;11.30;99.90;;;11.85;100.00;97253.34;5002840;28;21051;-77
2023/03/23 05:15:59;;;;;;;6.27;4.37;;;11.30;99.90;;;11.82;100.00;97253.75;5008623;28;20498;-75
2023/03/23 05:18:28;;;;;;;4.50;2.00;;;11.30;99.90;;;11.81;100.00;97260.00;4998393;28;20472;-78
2023/03/23 05:21:00;;;;;;;2.30;1.60;;;11.30;99.90;;;11.82;100.00;97266.88;5000285;28;20471;-77
2023/03/23 05:23:30;;;;;;;2.10;1.50;;;11.30;99.90;;;11.84;100.00;97270.06;5002173;28;20473;-78
2023/03/23 05:26:02;;;;;;;1.97;1.57;;;11.30;99.90;;;11.78;100.00;97266.47;5004321;28;20526;-77
2023/03/23 05:28:31;;;;;;;2.30;1.60;;;11.30;99.90;;;11.78;100.00;97258.63;5004442;28;20462;-77
2023/03/23 05:30:58;;;;;;;1.90;1.70;;;11.30;99.90;;;11.80;100.00;97258.44;5004739;28;20496;-77
2023/03/23 05:33:27;;;;;;;1.70;1.50;;;11.30;99.90;;;11.80;100.00;97266.28;5004779;28;20489;-77
2023/03/23 05:35:55;;;;;;;1.93;1.60;;;11.30;99.90;;;11.79;100.00;97264.69;5038124;28;20482;-77
2023/03/23 05:38:24;;;;;;;3.00;1.93;;;11.30;99.90;;;11.80;100.00;97264.44;5006944;28;20553;-78
2023/03/23 05:40:54;;;;;;;2.20;1.60;;;11.20;99.90;;;11.84;100.00;97255.16;5007635;28;20482;-77
2023/03/23 05:43:25;;;;;;;1.53;1.43;;;11.30;99.90;;;11.78;100.00;97266.47;5008885;28;20443;-77
2023/03/23 05:45:52;;;;;;;4.10;1.80;;;11.30;99.90;;;11.76;100.00;97268.53;5009432;28;20542;-77
2023/03/23 05:48:21;;;;;;;1.73;1.47;;;11.20;99.90;;;11.77;100.00;97253.59;5009692;28;21015;-77
2023/03/23 05:50:51;;;;;;;2.40;1.60;;;11.20;99.90;;;11.75;100.00;97245.97;5007646;28;20506;-77
2023/03/23 05:53:19;;;;;;;2.20;1.80;;;11.20;99.90;;;11.75;100.00;97253.00;5008946;28;21073;-77
2023/03/23 05:55:47;;;;;;;6.97;2.03;;;11.10;99.90;;;11.77;100.00;97254.41;5007768;28;20506;-77
2023/03/23 05:58:16;;;;;;;7.60;1.60;;;11.20;99.90;;;11.80;100.00;97253.97;5006719;28;20474;-78
2023/03/23 06:00:46;;;;;;;1.97;1.73;;;11.20;99.90;;;11.81;100.00;97260.81;4999698;28;20476;-78
2023/03/23 06:03:15;;;;;;;1.70;1.50;;;11.30;99.90;;;11.80;100.00;97258.44;5005595;28;20467;-77
2023/03/23 06:05:44;;;;;;;1.77;1.40;;;11.30;99.90;;;11.80;100.00;97268.91;5007888;28;20593;-77
2023/03/23 06:08:13;;;;;;;2.93;1.80;;;11.20;99.90;;;11.79;100.00;97273.34;5000547;28;20993;-77
2023/03/23 06:10:42;;;;;;;4.77;1.40;;;11.20;99.90;;;11.82;100.00;97272.09;5000072;28;20530;-77
2023/03/23 06:13:09;;;;;;;1.47;1.37;;;11.30;99.90;;;11.81;100.00;97278.34;5000656;28;20459;-77
2023/03/23 06:15:38;;;;;;;3.43;1.53;;;11.20;99.90;;;11.84;100.00;97270.06;4999887;28;20459;-77
2023/03/23 06:18:07;;;;;;;1.77;1.63;;;11.20;99.90;;;11.86;100.00;97286.38;5034239;28;20813;-77
2023/03/23 06:20:36;;;;;;;1.83;1.63;;;11.30;99.90;;;11.87;100.00;97290.63;4999454;28;20472;-77
2023/03/23 06:23:05;;;;;;;2.20;1.90;;;11.30;99.90;;;11.86;100.00;97296.84;4999697;28;20460;-77
2023/03/23 06:25:33;;;;;;;4.73;1.87;;;11.30;99.90;;;11.88;100.00;97290.38;4999859;28;20467;-77
2023/03/23 06:28:02;;;;;;;2.00;1.40;;;11.30;99.90;;;11.87;100.00;97295.84;5002166;28;21776;-77
2023/03/23 06:30:30;;;;;;;1.90;1.60;;;11.30;99.90;;;11.85;100.00;97297.88;4999846;28;20491;-77
2023/03/23 06:33:00;;;;;;;3.20;1.90;;;11.30;99.90;;;11.82;100.00;97298.28;5001038;28;20549;-77
2023/03/23 06:35:30;;;;;;;6.20;2.07;;;11.40;99.90;;;11.83;100.00;97299.91;5000895;28;20473;-77
2023/03/23 06:38:01;;;;;;;2.07;1.57;;;11.30;99.90;;;11.84;100.00;97301.50;5001470;28;20638;-77
2023/03/23 06:40:29;;;;;;;4.43;2.40;;;11.30;99.90;;;11.86;100.00;97294.25;5001803;28;21520;-77
2023/03/23 06:42:59;;;;;;;2.13;1.60;;;11.30;99.90;;;11.88;100.00;97286.97;5000965;28;20467;-78
2023/03/23 06:45:27;;;;;;;3.97;2.10;;;11.30;99.90;;;11.88;100.00;97290.38;5005499;28;20467;-77
2023/03/23 06:47:55;;;;;;;3.27;1.77;;;11.30;99.90;;;11.88;100.00;97292.19;5002424;28;20994;-78
2023/03/23 06:50:23;;;;;;;2.20;1.60;;;11.40;99.90;;;11.89;100.00;97278.91;5006707;28;20491;-77
2023/03/23 06:52:52;;;;;;;3.33;1.53;;;11.40;99.90;;;11.93;100.00;97281.88;5015452;28;20577;-77
2023/03/23 06:55:19;;;;;;;2.40;1.60;;;11.40;99.90;;;11.96;100.00;97289.31;5016140;28;20563;-77
2023/03/23 06:57:49;;;;;;;7.73;1.73;;;11.40;99.90;;;11.99;100.00;97304.59;4999475;28;20611;-77
2023/03/23 07:00:18;;;;;;;3.17;1.80;;;11.40;99.90;;;12.01;100.00;97307.81;5000743;28;21020;-77
2023/03/23 07:02:47;;;;;;;3.47;1.60;;;11.50;99.90;;;12.02;100.00;97306.78;5000301;28;20521;-77
2023/03/23 07:05:15;;;;;;;1.93;1.37;;;11.50;99.90;;;11.98;100.00;97308.22;5000277;28;20466;-77
2023/03/23 07:07:43;;;;;;;3.13;2.00;;;11.40;99.90;;;11.99;100.00;97304.59;5001178;28;20472;-78
2023/03/23 07:10:12;;;;;;;5.57;1.87;;;11.50;99.90;;;11.99;100.00;97309.84;5000295;28;20521;-77
2023/03/23 07:12:41;;;;;;;1.53;1.27;;;11.40;99.90;;;12.04;100.00;97307.41;4998674;28;20490;-77
2023/03/23 07:15:12;;;;;;;1.83;1.57;;;11.50;99.90;;;12.06;100.00;97321.09;4999551;28;21113;-77
2023/03/23 07:17:41;;;;;;;1.30;1.20;;;11.50;99.90;;;12.09;100.00;97320.66;5001036;28;20551;-77
2023/03/23 07:20:10;;;;;;;2.00;1.60;;;11.50;99.90;;;12.14;100.00;97317.41;4999298;28;20467;-77
2023/03/23 07:22:38;;;;;;;1.77;1.50;;;11.60;99.90;;;12.15;100.00;97325.03;5005902;28;20463;-77
2023/03/23 07:25:09;;;;;;;3.57;1.43;;;11.60;99.90;;;12.18;100.00;97323.81;4998444;28;20463;-77
2023/03/23 07:27:39;;;;;;;2.90;1.90;;;11.70;99.90;;;12.20;100.00;97327.81;5005378;28;20542;-78
2023/03/23 07:30:12;;;;;;;2.60;1.30;;;11.60;99.90;;;12.26;100.00;97336.63;5005847;28;20488;-77
2023/03/23 07:32:39;;;;;;;1.73;1.40;;;11.70;99.90;;;12.29;100.00;97342.25;5004487;28;20474;-78
2023/03/23 07:35:10;;;;;;;2.10;1.33;;;11.80;99.90;;;12.27;100.00;97346.09;5003334;28;20563;-77
2023/03/23 07:37:38;;;;;;;2.50;1.27;;;11.80;99.90;;;12.27;100.00;97348.72;5004251;28;20494;-77
2023/03/23 07:40:14;;;;;;;1.77;1.50;;;11.80;99.90;;;12.27;100.00;97354.78;5003363;28;20923;-78
2023/03/23 07:42:45;;;;;;;1.80;1.60;;;11.70;99.90;;;12.28;100.00;97356.41;5003292;28;20471;-77
2023/03/23 07:45:15;;;;;;;2.37;1.07;;;11.70;99.90;;;12.32;100.00;97360.16;5002988;28;20491;-77
2023/03/23 07:47:43;;;;;;;1.10;1.00;;;11.80;99.90;;;12.27;100.00;97362.66;5000065;28;20546;-77
2023/03/23 07:50:13;;;;;;;6.90;4.27;;;11.80;99.90;;;12.31;100.00;97360.41;4998027;28;20579;-77
2023/03/23 07:52:42;;;;;;;2.40;1.87;;;11.80;99.90;;;12.31;100.00;97361.22;4999523;28;20482;-77
2023/03/23 07:55:17;;;;;;;2.87;1.30;;;11.80;99.90;;;12.31;100.00;97363.81;4998791;28;20504;-77
2023/03/23 07:57:48;;;;;;;1.40;1.30;;;11.70;99.90;;;12.34;100.00;97360.78;4998773;28;20475;-77
2023/03/23 08:00:20;;;;;;;2.63;1.73;;;11.80;99.90;;;12.40;100.00;97369.59;4997321;28;20468;-77
2023/03/23 08:02:49;;;;;;;2.17;1.60;;;11.80;99.90;;;12.38;100.00;97377.69;5000941;28;21294;-77
2023/03/23 08:05:18;;;;;;;1.20;1.10;;;11.90;99.90;;;12.40;100.00;97383.50;4998249;28;20471;-77
2023/03/23 08:07:47;;;;;;;2.20;1.30;;;11.90;99.90;;;12.40;100.00;97380.06;4997161;28;20581;-77
2023/03/23 08:10:17;;;;;;;3.20;1.30;;;11.80;99.90;;;12.37;100.00;97380.50;4997357;28;20558;-77
2023/03/23 08:12:48;;;;;;;2.50;1.70;;;11.80;99.90;;;12.39;100.00;97378.50;4999459;28;21004;-77
2023/03/23 08:15:16;;;;;;;2.37;1.03;;;11.90;99.90;;;12.37;100.00;97381.31;4998923;28;20467;-77
2023/03/23 08:17:45;;;;;;;3.23;1.37;;;11.80;99.90;;;12.38;100.00;97376.88;4999685;28;20558;-77
2023/03/23 08:20:14;;;;;;;3.40;1.33;;;11.90;99.90;;;12.37;100.00;97381.31;4999082;28;20538;-77
2023/03/23 08:22:45;;;;;;;3.57;1.30;;;11.90;99.90;;;12.38;100.00;97376.88;4998693;28;20562;-77
2023/03/23 08:25:17;;;;;;;3.33;1.60;;;11.80;99.90;;;12.37;100.00;97370.81;5000337;28;20479;-77
2023/03/23 08:27:46;;;;;;;1.50;1.40;;;11.80;99.90;;;12.43;100.00;97374.41;4998789;28;20499;-77
2023/03/23 08:30:19;;;;;;;2.70;1.37;;;11.90;99.90;;;12.49;100.00;97382.22;4997848;28;20523;-77
2023/03/23 08:32:49;;;;;;;2.37;1.30;;;11.90;99.90;;;12.52;100.00;97389.66;4997776;28;20652;-77
2023/03/23 08:35:17;;;;;;;1.43;1.23;;;11.90;99.90;;;12.57;100.00;97376.69;4997736;28;20478;-77
2023/03/23 08:37:50;;;;;;;1.43;1.10;;;12.00;99.90;;;12.60;100.00;97386.75;4997338;28;21065;-77
2023/03/23 08:40:22;;;;;;;2.80;1.40;;;12.00;99.90;;;12.58;100.00;97378.31;4999015;28;21874;-77
2023/03/23 08:42:53;;;;;;;1.50;1.10;;;12.10;99.90;;;12.54;100.00;97377.13;4998558;28;21106;-77
2023/03/23 08:45:26;;;;;;;4.60;1.60;;;12.10;99.90;;;12.53;100.00;97379.94;4999556;28;20478;-77
2023/03/23 08:47:54;;;;;;;2.10;1.40;;;12.10;99.90;;;12.51;100.00;97377.56;4997443;28;20467;-77
2023/03/23 08:50:27;;;;;;;1.73;1.47;;;12.10;99.90;;;12.53;100.00;97377.34;4996845;28;20538;-77
2023/03/23 08:52:56;;;;;;;2.87;0.90;;;12.10;99.90;;;12.55;100.00;97378.75;4997856;28;20804;-77
2023/03/23 08:55:24;;;;;;;1.20;1.10;;;12.10;99.90;;;12.59;100.00;97384.34;4999049;28;20906;-77
2023/03/23 08:57:54;;;;;;;1.97;1.30;;;12.10;99.90;;;12.57;100.00;97397.69;4997570;28;20482;-77
2023/03/23 09:00:25;;;;;;;3.03;1.10;;;12.10;99.90;;;12.50;100.00;97381.19;4997491;28;20515;-77
2023/03/23 09:02:56;;;;;;;1.43;1.10;;;12.10;99.90;;;12.52;100.00;97394.91;4998901;28;20932;-77
2023/03/23 09:05:28;;;;;;;1.03;0.93;;;12.10;99.90;;;12.54;100.00;97386.81;4997286;28;21052;-77
2023/03/23 09:07:59;;;;;;;1.50;1.27;;;12.10;99.90;;;12.57;100.00;97395.06;5002933;28;20976;-77
2023/03/23 09:10:29;;;;;;;1.60;1.33;;;12.10;99.90;;;12.65;100.00;97398.41;4995545;28;20519;-77
2023/03/23 09:12:59;;;;;;;3.07;1.10;;;12.10;99.90;;;12.63;100.00;97398.66;5002718;28;20486;-77
2023/03/23 09:15:28;;;;;;;2.50;1.20;;;12.10;99.90;;;12.69;100.00;97402.22;4998906;28;21047;-77
2023/03/23 09:17:57;;;;;;;2.20;1.10;;;12.20;99.90;;;12.62;100.00;97399.66;4998730;28;20459;-77
2023/03/23 09:20:28;;;;;;;1.20;1.10;;;12.10;99.90;;;12.54;100.00;97403.34;4998931;28;20474;-77
2023/03/23 09:22:57;;;;;;;1.30;1.00;;;11.90;99.90;;;12.46;100.00;97406.25;4997378;28;21003;-77
2023/03/23 09:25:28;;;;;;;5.50;1.50;;;11.90;99.90;;;12.51;100.00;97409.03;4998271;28;20460;-77
2023/03/23 09:27:59;;;;;;;2.93;1.50;;;12.00;99.90;;;12.53;100.00;97400.94;4996970;28;20981;-77
2023/03/23 09:30:31;;;;;;;7.00;1.30;;;12.00;99.90;;;12.58;100.00;97399.28;4995499;28;20548;-77
2023/03/23 09:33:00;;;;;;;1.27;1.00;;;12.00;99.90;;;12.59;100.00;97410.59;4997673;28;20529;-77
2023/03/23 09:35:29;;;;;;;2.10;1.03;;;12.10;99.90;;;12.55;100.00;97407.59;4997955;28;20494;-77
2023/03/23 09:38:00;;;;;;;1.20;0.97;;;12.10;99.90;;;12.50;100.00;97396.94;5002167;28;20475;-77
2023/03/23 09:40:36;;;;;;;2.20;1.30;;;12.00;99.90;;;12.57;100.00;97397.69;5005056;28;20478;-77
2023/03/23 09:43:28;;;;;;;2.47;1.10;;;12.10;99.90;;;12.53;100.00;97404.38;5001799;28;20466;-78
2023/03/23 09:46:14;;;;;;;2.83;1.03;;;12.00;99.90;;;12.50;100.00;97407.41;5002764;28;20467;-77
2023/03/23 09:48:53;;;;;;;1.53;0.93;;;12.10;99.90;;;12.49;100.00;97420.75;5000483;28;20482;-78
2023/03/23 09:51:43;;;;;;;1.07;0.93;;;12.00;99.90;;;12.55;100.00;97414.66;5008123;28;20510;-78
2023/03/23 09:54:21;;;;;;;4.53;2.67;;;12.00;99.90;;;12.59;100.00;97421.88;5003282;28;20475;-77
2023/03/23 09:56:51;;;;;;;1.10;1.00;;;12.10;99.90;;;12.61;100.00;97417.22;5003651;28;21033;-77
2023/03/23 09:59:31;;;;;;;1.97;1.00;;;12.10;99.90;;;12.66;100.00;97423.63;5034998;28;20467;-77
2023/03/23 10:02:12;;;;;;;1.07;0.83;;;12.20;99.90;;;12.63;100.00;97421.44;5002002;28;20513;-77
2023/03/23 10:04:49;;;;;;;2.00;1.00;;;12.10;99.90;;;12.70;100.00;97419.56;5000867;28;20483;-77
2023/03/23 10:07:22;;;;;;;2.93;1.00;;;12.20;99.90;;;12.68;100.00;97421.59;5007515;28;20471;-77
2023/03/23 10:09:54;;;;;;;1.93;1.13;;;12.20;99.90;;;12.74;100.00;97423.38;5001129;28;21310;-77
2023/03/23 10:12:32;;;;;;;2.50;1.00;;;12.20;99.90;;;12.79;100.00;97418.28;5002180;28;20463;-78
2023/03/23 10:15:15;;;;;;;2.30;1.17;;;12.30;99.90;;;12.83;100.00;97412.38;5001214;28;20467;-77
2023/03/23 10:17:53;;;;;;;1.60;1.10;;;12.30;99.90;;;12.87;100.00;97404.88;5000051;28;20467;-77
2023/03/23 10:20:54;;;;;;;1.50;1.10;;;12.40;99.90;;;12.91;100.00;97409.47;5000184;28;20472;-77
2023/03/23 10:23:49;;;;;;;1.60;1.20;;;12.40;99.90;;;12.97;100.00;97411.22;5000430;28;20470;-77
2023/03/23 10:26:33;;;;;;;1.37;1.07;;;12.50;99.90;;;13.03;100.00;97410.34;4999665;28;20473;-77
2023/03/23 10:29:16;;;;;;;1.30;1.13;;;12.60;99.90;;;13.10;100.00;97402.44;4999257;28;20475;-77
2023/03/23 10:31:54;;;;;;;1.20;0.90;;;12.60;99.90;;;13.17;100.00;97413.66;5000242;28;20522;-77